Time;durP1;ratioP1;P1;durP2;ratioP2;P2;SDS_P1;SDS_P2;PMS_P1;PMS_P2;Temp;Humidity;BMP_temperature;BMP_pressure;BME280_temperature;BME280_humidity;BME280_pressure;Samples;Min_cycle;Max_cycle;Signal;HPM_P1;HPM_P2
2022/08/06 00:00:58;;;;;;;12.98;3.15;;;;;;;;;;5015720;28;20056;-78
2022/08/06 00:03:24;;;;;;;;;;;;;;;;;;5015436;28;20053;-77
2022/08/06 00:05:50;;;;;;;9.07;3.10;;;;;;;;;;5015164;28;20425;-77
2022/08/06 00:08:17;;;;;;;7.93;2.75;;;;;;;;;;5014459;28;20052;-78
2022/08/06 00:10:43;;;;;;;10.38;3.30;;;;;;;;;;4997399;28;20104;-78
2022/08/06 00:13:09;;;;;;;;;;;;;;;;;;4997845;28;20050;-78
2022/08/06 00:15:35;;;;;;;10.05;3.28;;;;;;;;;;5015147;28;19921;-79
2022/08/06 00:18:01;;;;;;;9.18;2.83;;;;;;;;;;4997683;28;20054;-78
2022/08/06 00:20:27;;;;;;;7.93;2.78;;;;;;;;;;4999371;28;20057;-79
2022/08/06 00:22:53;;;;;;;9.07;3.17;;;;;;;;;;5016221;28;20046;-78
2022/08/06 00:25:20;;;;;;;9.40;2.80;;;;;;;;;;5016384;28;20133;-78
2022/08/06 00:27:46;;;;;;;8.48;2.97;;;;;;;;;;5017853;28;20049;-78
2022/08/06 00:30:12;;;;;;;9.02;2.80;;;;;;;;;;4998497;28;20050;-78
2022/08/06 00:32:38;;;;;;;10.05;2.92;;;;;;;;;;4997937;28;20049;-78
2022/08/06 00:35:05;;;;;;;8.07;2.65;;;;;;;;;;4998066;28;20056;-68
2022/08/06 00:37:32;;;;;;;12.05;2.92;;;;;;;;;;5014551;28;20100;-78
2022/08/06 00:40:01;;;;;;;11.93;2.97;;;;;;;;;;5014649;28;20046;-78
2022/08/06 00:42:27;;;;;;;10.90;3.30;;;;;;;;;;4997390;28;20049;-78
2022/08/06 00:44:54;;;;;;;8.60;2.78;;;;;;;;;;5014866;28;20069;-78
2022/08/06 00:47:20;;;;;;;8.55;2.65;;;;;;;;;;5015199;28;20108;-78
2022/08/06 00:49:46;;;;;;;12.23;3.03;;;;;;;;;;5015118;28;20050;-75
2022/08/06 00:52:12;;;;;;;8.98;2.60;;;;;;;;;;5013981;28;20464;-78
2022/08/06 00:54:38;;;;;;;7.72;2.60;;;;;;;;;;5015300;28;20150;-78
2022/08/06 00:57:05;;;;;;;8.63;3.15;;;;;;;;;;5014994;28;20049;-78
2022/08/06 00:59:31;;;;;;;9.75;2.97;;;;;;;;;;4996948;28;20521;-78
2022/08/06 01:01:57;;;;;;;9.60;2.85;;;;;;;;;;5014754;28;20049;-79
2022/08/06 01:04:23;;;;;;;9.52;2.88;;;;;;;;;;5014178;28;20046;-78
2022/08/06 01:06:49;;;;;;;11.27;2.90;;;;;;;;;;5014263;28;20188;-78
2022/08/06 01:09:15;;;;;;;10.02;3.10;;;;;;;;;;4997369;28;20050;-78
2022/08/06 01:11:41;;;;;;;12.45;3.33;;;;;;;;;;4996716;28;20085;-78
2022/08/06 01:14:07;;;;;;;9.13;3.20;;;;;;;;;;5014089;28;20530;-78
2022/08/06 01:16:42;;;;;;;8.57;2.90;;;;;;;;;;4981247;28;20050;-78
2022/08/06 01:19:27;;;;;;;7.93;2.70;;;;;;;;;;5013263;28;20433;-77
2022/08/06 01:21:59;;;;;;;11.32;3.58;;;;;;;;;;5014045;28;20057;-77
2022/08/06 01:24:31;;;;;;;9.85;3.20;;;;;;;;;;5013848;28;20048;-78
2022/08/06 01:27:04;;;;;;;8.75;3.13;;;;;;;;;;5013804;28;20125;-78
2022/08/06 01:29:36;;;;;;;9.80;3.20;;;;;;;;;;5014132;28;20088;-79
2022/08/06 01:32:31;;;;;;;12.80;3.10;;;;;;;;;;5013553;28;20137;-79
2022/08/06 01:35:02;;;;;;;9.23;3.00;;;;;;;;;;4996740;28;20061;-79
2022/08/06 01:37:34;;;;;;;10.15;3.45;;;;;;;;;;4996134;28;20470;-78
2022/08/06 01:40:02;;;;;;;10.35;3.20;;;;;;;;;;5013368;28;20421;-80
2022/08/06 01:42:30;;;;;;;8.38;2.83;;;;;;;;;;5013374;28;20050;-79
2022/08/06 01:45:00;;;;;;;10.15;3.15;;;;;;;;;;5013868;28;20049;-79
2022/08/06 01:47:27;;;;;;;9.35;3.13;;;;;;;;;;5013394;28;20124;-79
2022/08/06 01:49:56;;;;;;;8.57;3.10;;;;;;;;;;4995727;28;20038;-79
2022/08/06 01:52:23;;;;;;;8.48;2.90;;;;;;;;;;5013331;28;20058;-79
2022/08/06 01:54:50;;;;;;;8.65;3.20;;;;;;;;;;5013955;28;20111;-79
2022/08/06 01:57:18;;;;;;;8.13;2.92;;;;;;;;;;5013262;28;20092;-79
2022/08/06 01:59:48;;;;;;;9.48;3.03;;;;;;;;;;5013465;28;20194;-80
2022/08/06 02:02:17;;;;;;;10.63;2.85;;;;;;;;;;5013230;28;20049;-79
2022/08/06 02:04:45;;;;;;;7.30;2.85;;;;;;;;;;5013820;28;20056;-79
2022/08/06 02:07:12;;;;;;;10.15;3.00;;;;;;;;;;5013789;28;20057;-80
2022/08/06 02:09:40;;;;;;;12.02;3.30;;;;;;;;;;5013250;28;20069;-79
2022/08/06 02:12:14;;;;;;;6.82;2.90;;;;;;;;;;5013268;28;20212;-79
2022/08/06 02:14:52;;;;;;;7.38;2.88;;;;;;;;;;5013163;28;20042;-79
2022/08/06 02:17:19;;;;;;;9.02;3.20;;;;;;;;;;5014141;28;20058;-78
2022/08/06 02:19:47;;;;;;;8.77;2.95;;;;;;;;;;5013883;28;20370;-79
2022/08/06 02:22:13;;;;;;;9.68;3.63;;;;;;;;;;5013514;28;20046;-79
2022/08/06 02:24:39;;;;;;;;;;;;;;;;;;5013971;28;20485;-78
2022/08/06 02:27:06;;;;;;;8.15;3.10;;;;;;;;;;5013308;28;19921;-79
2022/08/06 02:29:32;;;;;;;9.07;3.00;;;;;;;;;;5013414;28;20133;-80
2022/08/06 02:31:58;;;;;;;;;;;;;;;;;;5014187;28;20370;-79
2022/08/06 02:34:24;;;;;;;10.10;3.00;;;;;;;;;;4999556;28;19928;-79
2022/08/06 02:36:56;;;;;;;9.05;3.30;;;;;;;;;;5017640;28;20131;-80
2022/08/06 02:39:22;;;;;;;9.57;2.90;;;;;;;;;;5017454;28;20042;-79
2022/08/06 02:41:51;;;;;;;8.18;3.00;;;;;;;;;;4983367;28;20056;-79
2022/08/06 02:44:25;;;;;;;10.18;3.13;;;;;;;;;;5016737;28;20064;-79
2022/08/06 02:47:10;;;;;;;7.57;3.15;;;;;;;;;;5016793;28;20045;-79
2022/08/06 02:49:37;;;;;;;9.82;3.30;;;;;;;;;;5016432;28;20046;-75
2022/08/06 02:52:24;;;;;;;10.00;3.78;;;;;;;;;;5016309;28;20056;-78
2022/08/06 02:54:56;;;;;;;8.93;3.88;;;;;;;;;;5003975;28;20053;-78
2022/08/06 02:57:24;;;;;;;10.55;4.40;;;;;;;;;;5017145;28;20132;-68
2022/08/06 02:59:53;;;;;;;9.70;3.85;;;;;;;;;;5016690;28;20097;-79
2022/08/06 03:02:22;;;;;;;10.93;4.70;;;;;;;;;;5016977;28;20042;-80
2022/08/06 03:04:49;;;;;;;8.23;3.60;;;;;;;;;;5016485;28;20050;-79
2022/08/06 03:07:15;;;;;;;10.45;3.85;;;;;;;;;;5016468;28;20045;-78
2022/08/06 03:09:44;;;;;;;9.32;3.70;;;;;;;;;;5016224;28;20046;-79
2022/08/06 03:12:11;;;;;;;10.48;3.83;;;;;;;;;;5016189;28;20152;-79
2022/08/06 03:14:39;;;;;;;8.77;3.65;;;;;;;;;;5016061;28;20045;-79
2022/08/06 03:17:06;;;;;;;10.73;3.97;;;;;;;;;;4999090;28;20049;-79
2022/08/06 03:19:33;;;;;;;8.35;3.58;;;;;;;;;;4998530;28;20108;-79
2022/08/06 03:21:59;;;;;;;9.75;3.90;;;;;;;;;;5016132;28;20049;-79
2022/08/06 03:24:25;;;;;;;;;;;;;;;;;;5016843;28;20068;-79
2022/08/06 03:26:52;;;;;;;8.32;3.30;;;;;;;;;;5015559;28;20370;-80
2022/08/06 03:29:18;;;;;;;8.73;3.40;;;;;;;;;;5015739;28;20120;-79
2022/08/06 03:31:44;;;;;;;;;;;;;;;;;;5016135;28;20050;-80
2022/08/06 03:34:11;;;;;;;10.23;3.30;;;;;;;;;;5018663;28;19958;-80
2022/08/06 03:36:38;;;;;;;8.80;3.10;;;;;;;;;;5016260;28;20065;-81
2022/08/06 03:39:08;;;;;;;8.23;3.40;;;;;;;;;;4998391;28;20139;-71
2022/08/06 03:41:36;;;;;;;9.25;3.22;;;;;;;;;;5015650;28;20054;-78
2022/08/06 03:44:02;;;;;;;8.50;3.30;;;;;;;;;;5014385;28;20046;-81
2022/08/06 03:46:51;;;;;;;9.27;3.40;;;;;;;;;;5015377;28;20046;-81
2022/08/06 03:49:26;;;;;;;7.78;3.30;;;;;;;;;;4977694;28;20053;-81
2022/08/06 03:51:54;;;;;;;8.25;3.22;;;;;;;;;;5014480;28;20053;-81
2022/08/06 03:54:27;;;;;;;8.00;3.20;;;;;;;;;;5014367;28;20066;-80
2022/08/06 03:56:55;;;;;;;9.25;3.22;;;;;;;;;;4997769;28;20060;-80
2022/08/06 03:59:22;;;;;;;10.23;3.53;;;;;;;;;;4980859;28;20041;-80
2022/08/06 04:01:48;;;;;;;10.10;3.72;;;;;;;;;;5014199;28;20053;-80
2022/08/06 04:04:16;;;;;;;10.05;3.70;;;;;;;;;;4997320;28;20101;-80
2022/08/06 04:06:43;;;;;;;8.98;3.60;;;;;;;;;;5014151;28;20412;-80
2022/08/06 04:09:09;;;;;;;10.55;3.47;;;;;;;;;;4996605;28;20050;-80
2022/08/06 04:11:35;;;;;;;;;;;;;;;;;;5014119;28;20247;-80
2022/08/06 04:14:02;;;;;;;10.20;3.83;;;;;;;;;;5013718;28;20056;-80
2022/08/06 04:16:28;;;;;;;11.27;4.03;;;;;;;;;;5013686;28;20046;-80
2022/08/06 04:18:55;;;;;;;9.95;3.67;;;;;;;;;;5012249;28;20406;-80
2022/08/06 04:21:23;;;;;;;8.57;3.65;;;;;;;;;;4996079;28;20046;-80
2022/08/06 04:23:49;;;;;;;8.68;3.53;;;;;;;;;;4995965;28;20054;-80
2022/08/06 04:26:17;;;;;;;8.52;3.67;;;;;;;;;;4996175;28;20050;-79
2022/08/06 04:28:46;;;;;;;9.82;3.92;;;;;;;;;;5013369;28;20064;-80
2022/08/06 04:31:13;;;;;;;9.35;3.80;;;;;;;;;;5013506;28;20450;-79
2022/08/06 04:33:40;;;;;;;10.77;3.85;;;;;;;;;;4995644;28;20094;-79
2022/08/06 04:36:06;;;;;;;7.35;3.67;;;;;;;;;;5013340;28;20405;-78
2022/08/06 04:38:33;;;;;;;9.05;3.63;;;;;;;;;;5013203;28;20493;-78
2022/08/06 04:41:00;;;;;;;9.27;3.97;;;;;;;;;;4980386;28;20053;-77
2022/08/06 04:43:29;;;;;;;9.55;3.72;;;;;;;;;;5012773;28;20516;-80
2022/08/06 04:45:56;;;;;;;8.68;3.70;;;;;;;;;;4995707;28;20052;-80
2022/08/06 04:48:22;;;;;;;9.25;3.97;;;;;;;;;;5013407;28;20136;-79
2022/08/06 04:50:49;;;;;;;9.60;3.70;;;;;;;;;;5013050;28;20076;-80
2022/08/06 04:53:17;;;;;;;8.90;4.00;;;;;;;;;;4991869;28;20482;-77
2022/08/06 04:55:43;;;;;;;10.23;4.00;;;;;;;;;;4993059;28;20080;-79
2022/08/06 04:58:10;;;;;;;9.05;3.67;;;;;;;;;;4976082;28;20054;-80
2022/08/06 05:00:39;;;;;;;12.23;4.20;;;;;;;;;;4993227;28;20077;-80
2022/08/06 05:03:05;;;;;;;9.80;3.50;;;;;;;;;;4993041;28;20050;-80
2022/08/06 05:05:34;;;;;;;8.77;3.58;;;;;;;;;;4993010;28;20060;-80
2022/08/06 05:08:00;;;;;;;10.57;4.03;;;;;;;;;;4993061;28;20042;-79
2022/08/06 05:10:26;;;;;;;;;;;;;;;;;;4993682;28;20134;-80
2022/08/06 05:12:55;;;;;;;9.65;3.72;;;;;;;;;;4993690;28;20008;-80
2022/08/06 05:15:25;;;;;;;10.77;3.67;;;;;;;;;;4992853;28;20132;-80
2022/08/06 05:18:04;;;;;;;10.50;3.60;;;;;;;;;;4995145;28;20050;-80
2022/08/06 05:20:33;;;;;;;12.13;4.00;;;;;;;;;;4999647;28;20057;-80
2022/08/06 05:23:05;;;;;;;9.65;3.85;;;;;;;;;;4997820;28;20046;-80
2022/08/06 05:25:36;;;;;;;8.88;4.00;;;;;;;;;;4998150;28;20046;-80
2022/08/06 05:28:02;;;;;;;9.65;3.78;;;;;;;;;;4996015;28;20054;-80
2022/08/06 05:30:28;;;;;;;9.18;3.80;;;;;;;;;;4996257;28;20089;-80
2022/08/06 05:32:54;;;;;;;8.90;3.78;;;;;;;;;;4995242;28;20050;-80
2022/08/06 05:35:20;;;;;;;10.60;3.72;;;;;;;;;;4993366;28;20042;-76
2022/08/06 05:37:46;;;;;;;9.32;3.55;;;;;;;;;;4992776;28;20118;-80
2022/08/06 05:40:13;;;;;;;8.45;3.35;;;;;;;;;;4992753;28;20054;-80
2022/08/06 05:42:39;;;;;;;9.43;3.30;;;;;;;;;;4992046;28;20090;-72
2022/08/06 05:45:07;;;;;;;8.10;3.38;;;;;;;;;;4992500;28;20054;-80
2022/08/06 05:47:35;;;;;;;10.57;3.63;;;;;;;;;;4976218;28;20085;-79
2022/08/06 05:50:21;;;;;;;10.00;3.45;;;;;;;;;;4992447;28;20046;-74
2022/08/06 05:52:58;;;;;;;8.90;3.10;;;;;;;;;;4999262;28;20058;-81
2022/08/06 05:55:32;;;;;;;9.07;3.22;;;;;;;;;;5011703;28;20509;-81
2022/08/06 05:58:01;;;;;;;8.88;3.38;;;;;;;;;;5012614;28;20049;-81
2022/08/06 06:00:29;;;;;;;9.57;3.58;;;;;;;;;;5012478;28;20057;-73
2022/08/06 06:02:56;;;;;;;10.77;3.53;;;;;;;;;;5011878;28;20121;-81
2022/08/06 06:05:23;;;;;;;10.00;3.58;;;;;;;;;;5012212;28;20096;-81
2022/08/06 06:07:49;;;;;;;9.70;3.53;;;;;;;;;;5011134;28;20085;-81
2022/08/06 06:10:16;;;;;;;9.52;3.63;;;;;;;;;;4993976;28;20046;-81
2022/08/06 06:12:43;;;;;;;9.23;3.75;;;;;;;;;;4994397;28;20455;-81
2022/08/06 06:15:10;;;;;;;9.00;3.55;;;;;;;;;;4994982;28;20050;-80
2022/08/06 06:17:36;;;;;;;7.93;3.50;;;;;;;;;;5011666;28;20046;-81
2022/08/06 06:20:09;;;;;;;8.25;3.47;;;;;;;;;;5011724;28;20186;-80
2022/08/06 06:22:42;;;;;;;9.68;3.70;;;;;;;;;;4994084;28;20052;-81
2022/08/06 06:25:17;;;;;;;9.70;3.60;;;;;;;;;;5012109;28;20157;-81
2022/08/06 06:27:55;;;;;;;9.60;3.72;;;;;;;;;;5011427;28;20046;-81
2022/08/06 06:30:29;;;;;;;9.00;3.67;;;;;;;;;;4994205;28;20057;-82
2022/08/06 06:33:07;;;;;;;10.60;3.50;;;;;;;;;;5011903;28;20050;-81
2022/08/06 06:35:42;;;;;;;10.50;3.50;;;;;;;;;;5011635;28;20096;-80
2022/08/06 06:38:20;;;;;;;8.55;3.13;;;;;;;;;;5011816;28;20042;-81
2022/08/06 06:40:49;;;;;;;6.80;2.92;;;;;;;;;;5011595;28;20042;-80
2022/08/06 06:43:22;;;;;;;9.27;3.10;;;;;;;;;;5011353;28;20045;-79
2022/08/06 06:45:48;;;;;;;7.55;2.88;;;;;;;;;;4993937;28;20045;-79
2022/08/06 06:48:23;;;;;;;8.95;3.40;;;;;;;;;;5011258;28;20434;-74
2022/08/06 06:50:54;;;;;;;10.18;3.50;;;;;;;;;;4993874;28;20372;-79
2022/08/06 06:53:21;;;;;;;8.40;3.05;;;;;;;;;;5011280;28;20062;-79
2022/08/06 06:55:51;;;;;;;9.27;3.20;;;;;;;;;;5011355;28;20057;-70
2022/08/06 06:58:47;;;;;;;8.95;3.15;;;;;;;;;;5011361;28;20060;-78
2022/08/06 07:01:14;;;;;;;6.70;2.70;;;;;;;;;;4941166;28;20051;-82
2022/08/06 07:03:41;;;;;;;6.90;2.90;;;;;;;;;;5011286;28;20128;-79
2022/08/06 07:06:10;;;;;;;7.60;2.97;;;;;;;;;;5011031;28;20050;-76
2022/08/06 07:08:44;;;;;;;11.30;3.00;;;;;;;;;;5011137;28;20088;-74
2022/08/06 07:11:11;;;;;;;7.18;2.63;;;;;;;;;;5011899;28;20125;-76
2022/08/06 07:13:39;;;;;;;8.38;2.92;;;;;;;;;;4994215;28;20058;-73
2022/08/06 07:16:05;;;;;;;7.88;2.67;;;;;;;;;;5011885;28;20049;-81
2022/08/06 07:18:33;;;;;;;9.07;2.60;;;;;;;;;;5015952;28;20049;-82
2022/08/06 07:21:00;;;;;;;7.45;2.53;;;;;;;;;;5015817;28;20388;-81
2022/08/06 07:23:25;;;;;;;;;;;;;;;;;;5014791;28;20468;-80
2022/08/06 07:25:53;;;;;;;9.52;2.33;;;;;;;;;;5015264;28;19933;-83
2022/08/06 07:28:19;;;;;;;9.25;2.58;;;;;;;;;;5014422;28;20494;-80
2022/08/06 07:30:46;;;;;;;9.18;2.10;;;;;;;;;;5014264;28;20096;-81
2022/08/06 07:33:12;;;;;;;9.18;2.20;;;;;;;;;;5014332;28;20053;-82
2022/08/06 07:35:41;;;;;;;9.85;2.40;;;;;;;;;;5014160;28;20050;-82
2022/08/06 07:38:08;;;;;;;7.55;2.10;;;;;;;;;;5012873;28;20123;-80
2022/08/06 07:40:43;;;;;;;10.43;2.55;;;;;;;;;;4996992;28;20037;-81
2022/08/06 07:43:20;;;;;;;8.00;2.30;;;;;;;;;;4996998;28;20050;-69
2022/08/06 07:45:48;;;;;;;7.40;1.90;;;;;;;;;;5014482;28;20485;-78
2022/08/06 07:48:15;;;;;;;9.15;2.33;;;;;;;;;;5014093;28;20482;-83
2022/08/06 07:50:45;;;;;;;5.80;1.90;;;;;;;;;;5013786;28;20126;-73
2022/08/06 07:53:12;;;;;;;9.63;2.10;;;;;;;;;;4979749;28;20521;-75
2022/08/06 07:55:39;;;;;;;11.73;2.25;;;;;;;;;;5013738;28;20378;-81
2022/08/06 07:58:05;;;;;;;;;;;;;;;;;;5014143;28;20139;-76
2022/08/06 08:00:32;;;;;;;7.13;1.77;;;;;;;;;;5014371;28;20060;-78
2022/08/06 08:08:31;;;;;;;6.22;1.67;;;;;;;;;;5013528;28;20509;-73
2022/08/06 08:10:58;;;;;;;6.93;1.75;;;;;;;;;;5013912;28;20092;-83
2022/08/06 08:13:24;;;;;;;8.73;1.92;;;;;;;;;;5013371;28;20050;-72
2022/08/06 08:15:50;;;;;;;6.25;1.85;;;;;;;;;;4979691;28;20052;-75
2022/08/06 08:18:17;;;;;;;6.05;1.70;;;;;;;;;;5013926;28;20129;-79
2022/08/06 08:20:43;;;;;;;9.60;2.30;;;;;;;;;;4996416;28;20052;-72
2022/08/06 08:23:11;;;;;;;6.28;1.70;;;;;;;;;;5013264;28;20133;-81
2022/08/06 08:25:38;;;;;;;9.32;2.20;;;;;;;;;;5013613;28;20568;-85
2022/08/06 08:28:09;;;;;;;8.70;2.10;;;;;;;;;;5013385;28;20164;-72
2022/08/06 08:30:37;;;;;;;6.03;1.98;;;;;;;;;;5012677;28;20493;-72
2022/08/06 08:33:03;;;;;;;9.82;2.22;;;;;;;;;;5013529;28;20050;-70
2022/08/06 08:35:29;;;;;;;10.25;1.92;;;;;;;;;;5013221;28;20056;-80
2022/08/06 08:37:55;;;;;;;6.28;1.98;;;;;;;;;;5013322;28;20482;-67
2022/08/06 08:40:23;;;;;;;5.70;1.95;;;;;;;;;;4995454;28;20089;-88
2022/08/06 08:42:55;;;;;;;6.78;1.80;;;;;;;;;;5013035;28;20054;-74
2022/08/06 08:45:23;;;;;;;9.55;2.03;;;;;;;;;;4995564;28;20041;-71
2022/08/06 08:47:53;;;;;;;6.68;2.20;;;;;;;;;;5013576;28;20548;-79
2022/08/06 08:50:20;;;;;;;6.57;2.05;;;;;;;;;;5012793;28;20038;-78
2022/08/06 08:52:47;;;;;;;6.10;2.00;;;;;;;;;;5012230;28;20132;-79
2022/08/06 08:55:15;;;;;;;6.95;2.30;;;;;;;;;;5013546;28;20054;-78
2022/08/06 08:57:42;;;;;;;9.90;2.35;;;;;;;;;;5013059;28;20062;-78
2022/08/06 09:00:08;;;;;;;18.25;2.53;;;;;;;;;;5012765;28;20046;-74
2022/08/06 09:02:36;;;;;;;9.68;2.60;;;;;;;;;;5012606;28;20042;-70
2022/08/06 09:05:03;;;;;;;10.48;2.75;;;;;;;;;;5012640;28;20052;-72
2022/08/06 09:07:31;;;;;;;9.90;2.65;;;;;;;;;;4995082;28;20046;-72
2022/08/06 09:09:58;;;;;;;8.80;2.65;;;;;;;;;;5012431;28;20477;-71
2022/08/06 09:12:26;;;;;;;8.27;2.53;;;;;;;;;;5012490;28;20386;-72
2022/08/06 09:14:52;;;;;;;10.68;3.13;;;;;;;;;;5012889;28;20049;-72
2022/08/06 09:17:21;;;;;;;9.73;2.72;;;;;;;;;;5012601;28;20125;-72
2022/08/06 09:19:49;;;;;;;12.25;2.95;;;;;;;;;;5012286;28;20050;-72
2022/08/06 09:22:15;;;;;;;8.80;2.58;;;;;;;;;;4994807;28;20080;-73
2022/08/06 09:24:41;;;;;;;12.80;3.00;;;;;;;;;;5012405;28;20053;-73
2022/08/06 09:27:07;;;;;;;10.60;2.60;;;;;;;;;;5012775;28;20146;-73
2022/08/06 09:29:34;;;;;;;9.57;3.00;;;;;;;;;;5012102;28;20128;-72
2022/08/06 09:32:03;;;;;;;9.25;2.80;;;;;;;;;;5012773;28;20050;-73
2022/08/06 09:34:33;;;;;;;9.40;2.60;;;;;;;;;;5012013;28;20049;-74
2022/08/06 09:36:59;;;;;;;9.95;3.10;;;;;;;;;;4994695;28;20133;-82
2022/08/06 09:39:33;;;;;;;8.32;2.70;;;;;;;;;;5012703;28;20139;-84
2022/08/06 09:41:59;;;;;;;8.77;2.90;;;;;;;;;;5011895;28;20485;-87
2022/08/06 09:44:25;;;;;;;8.38;2.83;;;;;;;;;;5012073;28;20433;-78
2022/08/06 09:46:52;;;;;;;9.93;2.60;;;;;;;;;;5012661;28;20042;-76
2022/08/06 09:49:19;;;;;;;8.32;2.63;;;;;;;;;;5011797;28;20093;-80
2022/08/06 09:51:45;;;;;;;10.20;2.92;;;;;;;;;;5012102;28;20061;-79
2022/08/06 09:54:15;;;;;;;16.05;3.00;;;;;;;;;;5012031;28;20104;-72
2022/08/06 09:56:42;;;;;;;8.43;2.78;;;;;;;;;;4978836;28;20052;-71
2022/08/06 09:59:08;;;;;;;11.32;3.00;;;;;;;;;;5012021;28;20249;-69
2022/08/06 10:01:40;;;;;;;9.43;2.97;;;;;;;;;;5011902;28;20504;-79
2022/08/06 10:04:06;;;;;;;11.18;3.00;;;;;;;;;;5011905;28;20056;-85
2022/08/06 10:06:32;;;;;;;8.55;2.65;;;;;;;;;;4994632;28;20062;-77
2022/08/06 10:08:58;;;;;;;;;;;;;;;;;;4995118;28;20048;-73
2022/08/06 10:11:32;;;;;;;8.90;3.00;;;;;;;;;;5011943;28;19925;-70
2022/08/06 10:13:58;;;;;;;10.40;2.80;;;;;;;;;;5011514;28;20081;-84
2022/08/06 10:16:26;;;;;;;9.32;2.60;;;;;;;;;;4993900;28;20046;-71
2022/08/06 10:18:53;;;;;;;11.23;2.72;;;;;;;;;;5011546;28;20045;-75
2022/08/06 10:21:22;;;;;;;7.97;2.50;;;;;;;;;;5011707;28;20552;-69
2022/08/06 10:23:50;;;;;;;6.47;2.30;;;;;;;;;;5011327;28;20054;-70
2022/08/06 10:26:22;;;;;;;9.10;2.90;;;;;;;;;;5011484;28;20049;-73
2022/08/06 10:28:49;;;;;;;9.48;2.80;;;;;;;;;;4994081;28;20132;-70
2022/08/06 10:31:19;;;;;;;9.77;3.03;;;;;;;;;;5011841;28;20069;-69
2022/08/06 10:33:56;;;;;;;8.13;2.72;;;;;;;;;;5011588;28;20050;-71
2022/08/06 10:36:25;;;;;;;7.55;2.63;;;;;;;;;;5011722;28;20130;-72
2022/08/06 10:38:53;;;;;;;8.32;2.67;;;;;;;;;;5011979;28;20038;-84
2022/08/06 10:41:19;;;;;;;8.38;2.95;;;;;;;;;;5011755;28;20057;-77
2022/08/06 10:43:45;;;;;;;7.93;2.88;;;;;;;;;;5011597;28;20045;-77
2022/08/06 10:46:19;;;;;;;10.73;2.72;;;;;;;;;;5011516;28;20552;-84
2022/08/06 10:48:46;;;;;;;10.27;2.97;;;;;;;;;;5011372;28;20085;-78
2022/08/06 10:51:13;;;;;;;8.13;2.85;;;;;;;;;;5011684;28;20050;-79
2022/08/06 10:53:44;;;;;;;8.88;3.00;;;;;;;;;;5013423;28;20080;-78
2022/08/06 10:56:11;;;;;;;8.65;2.97;;;;;;;;;;5016164;28;20104;-73
2022/08/06 10:58:38;;;;;;;9.20;3.10;;;;;;;;;;5015928;28;20559;-77
2022/08/06 11:01:09;;;;;;;9.07;3.15;;;;;;;;;;5016041;28;20046;-73
2022/08/06 11:03:40;;;;;;;8.90;3.10;;;;;;;;;;5018653;28;20119;-84
2022/08/06 11:06:22;;;;;;;10.38;3.45;;;;;;;;;;5016541;28;20115;-70
2022/08/06 11:08:57;;;;;;;7.88;2.90;;;;;;;;;;4997314;28;20054;-79
2022/08/06 11:11:32;;;;;;;8.52;3.08;;;;;;;;;;4997498;28;20132;-81
2022/08/06 11:14:07;;;;;;;8.57;3.05;;;;;;;;;;5015099;28;20449;-79
2022/08/06 11:16:35;;;;;;;8.50;3.20;;;;;;;;;;5015130;28;20050;-72
2022/08/06 11:19:11;;;;;;;9.38;3.15;;;;;;;;;;5017965;28;20435;-74
2022/08/06 11:21:39;;;;;;;7.78;3.30;;;;;;;;;;4998403;28;20477;-75
2022/08/06 11:24:05;;;;;;;8.20;3.15;;;;;;;;;;5014938;28;20042;-83
2022/08/06 11:26:33;;;;;;;10.40;3.45;;;;;;;;;;5014829;28;20049;-68
2022/08/06 11:29:00;;;;;;;11.05;3.63;;;;;;;;;;5014706;28;20486;-73
2022/08/06 11:31:32;;;;;;;9.13;3.50;;;;;;;;;;5014756;28;20405;-85
2022/08/06 11:33:59;;;;;;;9.63;4.03;;;;;;;;;;5014654;28;20128;-70
2022/08/06 11:36:26;;;;;;;11.93;4.13;;;;;;;;;;5014589;28;20081;-76
2022/08/06 11:38:55;;;;;;;9.70;4.38;;;;;;;;;;5014967;28;20061;-88
2022/08/06 11:41:22;;;;;;;8.77;3.83;;;;;;;;;;4996786;28;20049;-82
2022/08/06 11:43:54;;;;;;;8.82;3.90;;;;;;;;;;5014410;28;20049;-77
2022/08/06 11:46:27;;;;;;;9.93;3.88;;;;;;;;;;5014185;28;20054;-66
2022/08/06 11:48:59;;;;;;;11.52;4.30;;;;;;;;;;5014246;28;20046;-74
2022/08/06 11:51:43;;;;;;;11.52;4.35;;;;;;;;;;5014265;28;20501;-75
2022/08/06 11:54:28;;;;;;;10.23;4.35;;;;;;;;;;4996614;28;20452;-75
2022/08/06 11:57:06;;;;;;;10.73;4.32;;;;;;;;;;5014183;28;20176;-78
2022/08/06 11:59:44;;;;;;;9.65;4.40;;;;;;;;;;5014028;28;20477;-82
2022/08/06 12:02:11;;;;;;;10.45;4.50;;;;;;;;;;5014114;28;20050;-72
2022/08/06 12:04:47;;;;;;;9.57;4.28;;;;;;;;;;5013053;28;20116;-71
2022/08/06 12:07:33;;;;;;;9.63;4.60;;;;;;;;;;5014362;28;20112;-78
2022/08/06 12:10:05;;;;;;;9.63;4.00;;;;;;;;;;5013761;28;20514;-87
2022/08/06 12:12:34;;;;;;;10.52;4.15;;;;;;;;;;5013973;28;20207;-71
2022/08/06 12:15:04;;;;;;;11.70;4.60;;;;;;;;;;5013826;28;20144;-76
2022/08/06 12:17:31;;;;;;;11.63;4.65;;;;;;;;;;5014764;28;20085;-72
2022/08/06 12:20:01;;;;;;;11.00;4.70;;;;;;;;;;5013525;28;20046;-73
2022/08/06 12:22:27;;;;;;;11.60;5.10;;;;;;;;;;5013934;28;20466;-83
2022/08/06 12:24:54;;;;;;;;;;;;;;;;;;4996601;28;20046;-87
2022/08/06 12:27:22;;;;;;;10.85;5.07;;;;;;;;;;5014034;28;20353;-75
2022/08/06 12:29:48;;;;;;;10.57;4.68;;;;;;;;;;4996341;28;20044;-80
2022/08/06 12:32:25;;;;;;;10.73;4.97;;;;;;;;;;5013949;28;20045;-84
2022/08/06 12:34:51;;;;;;;;;;;;;;;;;;5014391;28;20060;-74
2022/08/06 12:37:17;;;;;;;10.30;4.68;;;;;;;;;;5014215;28;20273;-70
2022/08/06 12:42:29;;;;;;;10.43;5.00;;;;;;;;;;4996243;28;20054;-86
2022/08/06 12:44:55;;;;;;;;;;;;;;;;;;5013724;28;20046;-69
2022/08/06 12:47:22;;;;;;;10.27;4.57;;;;;;;;;;4995536;28;19932;-77
2022/08/06 12:49:48;;;;;;;10.40;4.88;;;;;;;;;;5012896;28;20046;-75
2022/08/06 12:52:20;;;;;;;9.90;5.00;;;;;;;;;;5013107;28;20136;-79
2022/08/06 12:54:46;;;;;;;10.45;4.88;;;;;;;;;;4991822;28;20061;-75
2022/08/06 12:57:23;;;;;;;9.80;4.63;;;;;;;;;;4993192;28;20065;-70
2022/08/06 12:59:49;;;;;;;9.73;4.53;;;;;;;;;;4993952;28;20053;-71
2022/08/06 13:02:19;;;;;;;10.38;4.53;;;;;;;;;;4993319;28;20050;-75
2022/08/06 13:04:48;;;;;;;10.70;4.45;;;;;;;;;;4992558;28;20082;-90
2022/08/06 13:07:15;;;;;;;9.95;4.50;;;;;;;;;;4993135;28;20057;-82
2022/08/06 13:09:41;;;;;;;9.43;4.55;;;;;;;;;;4993065;28;20101;-80
2022/08/06 13:12:13;;;;;;;10.27;4.80;;;;;;;;;;4993167;28;20046;-68
2022/08/06 13:14:53;;;;;;;10.00;4.57;;;;;;;;;;4993085;28;20049;-78
2022/08/06 13:17:21;;;;;;;13.35;5.00;;;;;;;;;;4992568;28;20518;-76
2022/08/06 13:19:54;;;;;;;12.55;4.97;;;;;;;;;;4992590;28;20043;-74
2022/08/06 13:22:21;;;;;;;10.57;5.03;;;;;;;;;;4993366;28;20093;-66
2022/08/06 13:24:48;;;;;;;11.35;5.40;;;;;;;;;;4991840;28;20050;-80
2022/08/06 13:27:14;;;;;;;11.23;5.00;;;;;;;;;;4991023;28;20046;-82
2022/08/06 13:30:00;;;;;;;10.68;5.10;;;;;;;;;;4991467;28;20045;-78
2022/08/06 13:32:26;;;;;;;11.50;4.57;;;;;;;;;;4993096;28;20112;-69
2022/08/06 13:34:57;;;;;;;10.85;4.70;;;;;;;;;;4992950;28;20137;-80
2022/08/06 13:37:42;;;;;;;10.48;4.55;;;;;;;;;;4993122;28;20056;-82
2022/08/06 13:40:08;;;;;;;11.07;5.13;;;;;;;;;;4992552;28;20046;-79
2022/08/06 13:42:34;;;;;;;;;;;;;;;;;;4992180;28;20055;-77
2022/08/06 13:45:18;;;;;;;10.60;4.90;;;;;;;;;;4992318;28;19929;-77
2022/08/06 13:47:45;;;;;;;10.70;4.90;;;;;;;;;;4992912;28;20050;-73
2022/08/06 13:50:11;;;;;;;;;;;;;;;;;;4992577;28;20039;-72
2022/08/06 13:52:37;;;;;;;11.55;4.68;;;;;;;;;;4992341;28;20008;-75
2022/08/06 13:55:03;;;;;;;9.60;4.18;;;;;;;;;;5011273;28;20224;-68
2022/08/06 13:57:35;;;;;;;;;;;;;;;;;;4994060;28;20058;-70
2022/08/06 14:00:01;;;;;;;10.30;4.63;;;;;;;;;;5012562;28;19921;-69
2022/08/06 14:02:27;;;;;;;;;;;;;;;;;;5011946;28;20052;-70
2022/08/06 14:04:53;;;;;;;10.10;4.30;;;;;;;;;;5011619;28;20029;-71
2022/08/06 14:07:19;;;;;;;10.27;4.78;;;;;;;;;;5011619;28;20046;-71
2022/08/06 14:09:45;;;;;;;9.85;4.18;;;;;;;;;;5011742;28;20045;-80
2022/08/06 14:12:11;;;;;;;9.75;4.30;;;;;;;;;;5011346;28;20050;-67
2022/08/06 14:14:37;;;;;;;10.77;4.80;;;;;;;;;;5011469;28;20053;-73
2022/08/06 14:17:03;;;;;;;10.60;4.45;;;;;;;;;;5011402;28;20092;-72
2022/08/06 14:19:29;;;;;;;12.68;3.97;;;;;;;;;;4994423;28;20535;-84
2022/08/06 14:21:55;;;;;;;;;;;;;;;;;;4994650;28;20115;-82
2022/08/06 14:24:21;;;;;;;9.57;4.38;;;;;;;;;;5011267;28;19921;-81
2022/08/06 14:26:47;;;;;;;;;;;;;;;;;;5012062;28;20050;-73
2022/08/06 14:29:13;;;;;;;9.43;4.40;;;;;;;;;;5013746;28;19955;-79
2022/08/06 14:31:39;;;;;;;;;;;;;;;;;;5015917;28;20502;-69
2022/08/06 14:34:06;;;;;;;9.23;4.35;;;;;;;;;;5030617;28;19921;-66
2022/08/06 14:36:34;;;;;;;9.60;3.88;;;;;;;;;;5015548;28;20084;-74
2022/08/06 14:39:01;;;;;;;9.98;3.60;;;;;;;;;;5017354;28;20050;-67
2022/08/06 14:46:56;;;;;;;11.82;3.58;;;;;;;;;;5015484;28;20073;-68
2022/08/06 14:49:22;;;;;;;;;;;;;;;;;;4997989;28;20042;-80
2022/08/06 14:51:49;;;;;;;13.23;4.00;;;;;;;;;;5014936;28;19972;-76
2022/08/06 14:54:16;;;;;;;10.10;4.00;;;;;;;;;;5014950;28;20050;-81
2022/08/06 14:56:43;;;;;;;9.57;4.05;;;;;;;;;;4997770;28;20041;-76
2022/08/06 14:59:09;;;;;;;8.05;3.13;;;;;;;;;;5015285;28;20088;-66
2022/08/06 15:01:35;;;;;;;;;;;;;;;;;;5015332;28;20049;-70
2022/08/06 15:04:01;;;;;;;9.98;3.47;;;;;;;;;;5014376;28;19983;-66
2022/08/06 15:06:27;;;;;;;8.10;3.13;;;;;;;;;;5015723;28;20045;-70
2022/08/06 15:08:53;;;;;;;11.02;4.00;;;;;;;;;;5015408;28;20139;-71